createdAt,value
2019-03-04T00:00:49.556Z,11.40
2019-03-04T00:03:17.800Z,11.40
2019-03-04T00:05:44.636Z,11.50
2019-03-04T00:08:11.196Z,11.40
2019-03-04T00:10:37.770Z,11.40
2019-03-04T00:13:04.310Z,11.40
2019-03-04T00:15:30.900Z,11.40
2019-03-04T00:17:57.446Z,11.30
2019-03-04T00:20:23.753Z,11.30
2019-03-04T00:22:50.344Z,11.40
2019-03-04T00:25:16.668Z,11.30
2019-03-04T00:27:43.390Z,11.40
2019-03-04T00:30:10.477Z,11.30
2019-03-04T00:32:37.082Z,11.40
2019-03-04T00:35:06.198Z,11.30
2019-03-04T00:37:32.780Z,11.40
2019-03-04T00:39:59.373Z,11.40
2019-03-04T00:42:25.702Z,11.30
2019-03-04T00:44:52.047Z,11.30
2019-03-04T00:47:18.606Z,11.30
2019-03-04T00:49:45.964Z,11.20
2019-03-04T00:52:12.260Z,11.30
2019-03-04T00:54:38.864Z,11.30
2019-03-04T00:57:05.161Z,11.20
2019-03-04T00:59:31.731Z,11.10
2019-03-04T01:01:58.339Z,11.20
2019-03-04T01:04:24.656Z,11.20
2019-03-04T01:06:50.975Z,11.20
2019-03-04T01:09:17.382Z,11.20
2019-03-04T01:11:43.704Z,11.20
2019-03-04T01:14:10.281Z,11.20
2019-03-04T01:16:36.604Z,11.30
2019-03-04T01:19:02.923Z,11.30
2019-03-04T01:21:29.218Z,11.30
2019-03-04T01:23:55.827Z,11.30
2019-03-04T01:26:22.112Z,11.30
2019-03-04T01:28:48.440Z,11.30
2019-03-04T01:31:15.029Z,11.30
2019-03-04T01:33:41.337Z,11.20
2019-03-04T01:36:07.645Z,11.30
2019-03-04T01:38:34.248Z,11.20
2019-03-04T01:41:00.542Z,11.20
2019-03-04T01:43:26.859Z,11.20
2019-03-04T01:45:53.269Z,11.20
2019-03-04T01:48:19.584Z,11.30
2019-03-04T01:50:46.145Z,11.20
2019-03-04T01:53:12.481Z,11.20
2019-03-04T01:55:38.809Z,11.10
2019-03-04T01:58:05.378Z,11.20
2019-03-04T02:00:34.006Z,11.10
2019-03-04T02:03:00.602Z,11.20
2019-03-04T02:05:27.045Z,11.10
2019-03-04T02:07:53.596Z,11.20
2019-03-04T02:10:20.279Z,11.10
2019-03-04T02:12:47.399Z,11.10
2019-03-04T02:15:19.224Z,11.10
2019-03-04T02:17:46.213Z,11.20
2019-03-04T02:20:14.938Z,11.20
2019-03-04T02:22:41.642Z,11.10
2019-03-04T02:25:12.866Z,11.10
2019-03-04T02:27:46.714Z,11.20
2019-03-04T02:30:25.737Z,11.20
2019-03-04T02:32:52.067Z,11.30
2019-03-04T02:35:18.481Z,11.30
2019-03-04T02:37:44.834Z,11.30
2019-03-04T02:40:11.527Z,11.30
2019-03-04T02:42:38.283Z,11.20
2019-03-04T02:45:13.262Z,11.20
2019-03-04T02:47:39.570Z,11.20
2019-03-04T02:50:06.898Z,11.10
2019-03-04T02:52:33.478Z,11.10
2019-03-04T02:55:00.057Z,11.00
2019-03-04T02:57:26.387Z,10.90
2019-03-04T02:59:52.690Z,10.90
2019-03-04T03:02:19.378Z,10.80
2019-03-04T03:04:45.670Z,10.70
2019-03-04T03:07:12.296Z,10.60
2019-03-04T03:09:38.606Z,10.60
2019-03-04T03:12:05.180Z,10.60
2019-03-04T03:14:31.495Z,10.50
2019-03-04T03:16:57.825Z,10.40
2019-03-04T03:19:24.186Z,10.40
2019-03-04T03:21:50.501Z,10.40
2019-03-04T03:24:16.829Z,10.40
2019-03-04T03:26:43.165Z,10.40
2019-03-04T03:29:09.550Z,10.30
2019-03-04T03:31:36.104Z,10.40
2019-03-04T03:34:03.415Z,10.30
2019-03-04T03:36:30.031Z,10.40
2019-03-04T03:38:56.372Z,10.40
2019-03-04T03:41:22.706Z,10.40
2019-03-04T03:43:49.354Z,10.40
2019-03-04T03:46:15.631Z,10.30
2019-03-04T03:48:41.977Z,10.30
2019-03-04T03:51:08.289Z,10.30
2019-03-04T03:53:35.745Z,10.30
2019-03-04T03:56:02.320Z,10.30
2019-03-04T03:58:29.053Z,10.10
2019-03-04T04:00:55.459Z,10.10
2019-03-04T04:03:21.751Z,10.00
2019-03-04T04:05:48.102Z,10.00
2019-03-04T04:08:14.390Z,10.00
2019-03-04T04:10:40.725Z,10.00
2019-03-04T04:13:07.294Z,10.00
2019-03-04T04:15:33.608Z,10.00
2019-03-04T04:18:00.201Z,10.00
2019-03-04T04:20:26.797Z,10.20
2019-03-04T04:22:53.148Z,10.10
2019-03-04T04:25:19.469Z,10.20
2019-03-04T04:27:45.824Z,10.00
2019-03-04T04:30:18.034Z,10.00
2019-03-04T04:32:44.361Z,10.00
2019-03-04T04:35:10.689Z,10.00
2019-03-04T04:37:37.002Z,9.90
2019-03-04T04:40:10.784Z,9.90
2019-03-04T04:42:37.085Z,9.90
2019-03-04T04:45:06.239Z,10.00
2019-03-04T04:47:32.529Z,10.20
2019-03-04T04:49:59.098Z,10.30
2019-03-04T04:52:25.662Z,10.50
2019-03-04T04:54:52.320Z,10.60
2019-03-04T04:57:18.715Z,10.60
2019-03-04T04:59:45.112Z,10.80
2019-03-04T05:02:11.450Z,11.00
2019-03-04T05:04:38.139Z,11.10
2019-03-04T05:07:04.759Z,11.30
2019-03-04T05:09:31.046Z,11.40
2019-03-04T05:11:59.645Z,11.60
2019-03-04T05:14:25.895Z,11.60
2019-03-04T05:16:53.289Z,11.60
2019-03-04T05:19:19.922Z,11.60
2019-03-04T05:21:49.164Z,11.60
2019-03-04T05:24:22.457Z,11.60
2019-03-04T05:26:48.806Z,11.70
2019-03-04T05:29:15.154Z,11.60
2019-03-04T05:31:41.447Z,11.60
2019-03-04T05:34:07.775Z,11.60
2019-03-04T05:36:34.370Z,11.60
2019-03-04T05:39:04.632Z,11.50
2019-03-04T05:41:33.126Z,11.60
2019-03-04T05:43:59.605Z,11.60
2019-03-04T05:46:25.899Z,11.60
2019-03-04T05:48:52.460Z,11.70
2019-03-04T05:51:19.361Z,11.70
2019-03-04T05:53:45.657Z,11.70
2019-03-04T05:56:11.999Z,11.80
2019-03-04T05:58:38.322Z,11.90
2019-03-04T06:01:19.762Z,12.10
2019-03-04T06:03:49.530Z,12.10
2019-03-04T06:06:18.047Z,12.20
2019-03-04T06:08:44.394Z,12.30
2019-03-04T06:11:11.022Z,12.20
2019-03-04T06:13:37.387Z,12.30
2019-03-04T06:16:03.713Z,12.30
2019-03-04T06:18:30.292Z,12.30
2019-03-04T06:20:56.657Z,12.30
2019-03-04T06:23:23.225Z,12.30
2019-03-04T06:25:49.576Z,12.30
2019-03-04T06:28:16.131Z,12.30
2019-03-04T06:30:42.701Z,12.30
2019-03-04T06:33:09.024Z,12.40
2019-03-04T06:35:35.445Z,12.40
2019-03-04T06:38:01.741Z,12.40
2019-03-04T06:40:28.335Z,12.30
2019-03-04T06:42:54.633Z,12.50
2019-03-04T06:45:20.974Z,12.40
2019-03-04T06:47:47.284Z,12.40
2019-03-04T06:50:47.390Z,12.40
2019-03-04T06:53:19.375Z,12.40
2019-03-04T06:56:14.709Z,12.30
2019-03-04T06:59:04.624Z,12.20
2019-03-04T07:01:39.793Z,12.20
2019-03-04T07:04:14.424Z,12.30
2019-03-04T07:06:41.055Z,12.50
2019-03-04T07:09:07.790Z,12.50
2019-03-04T07:11:35.381Z,12.70
2019-03-04T07:14:01.714Z,12.90
2019-03-04T07:16:28.831Z,13.10
2019-03-04T07:18:56.163Z,13.20
2019-03-04T07:21:22.499Z,13.30
2019-03-04T07:23:49.091Z,13.30
2019-03-04T07:26:15.445Z,13.40
2019-03-04T07:28:41.746Z,13.50
2019-03-04T07:31:08.085Z,13.50
2019-03-04T07:33:34.644Z,13.60
2019-03-04T07:36:00.982Z,13.70
2019-03-04T07:38:38.136Z,13.90
2019-03-04T07:41:04.722Z,14.00
2019-03-04T07:43:32.254Z,14.10
2019-03-04T07:45:58.560Z,14.20
2019-03-04T07:48:24.944Z,14.20
2019-03-04T07:50:51.261Z,14.30
2019-03-04T07:53:19.171Z,14.30
2019-03-04T07:55:45.627Z,14.40
2019-03-04T07:58:11.965Z,14.50
2019-03-04T08:00:38.553Z,14.50
2019-03-04T08:03:04.907Z,14.60
2019-03-04T08:05:33.376Z,14.60
2019-03-04T08:08:04.728Z,14.70
2019-03-04T08:10:45.872Z,14.70
2019-03-04T08:13:23.899Z,14.80
2019-03-04T08:15:50.212Z,14.90
2019-03-04T08:18:16.778Z,15.00
2019-03-04T08:20:43.227Z,15.00
2019-03-04T08:23:10.186Z,15.00
2019-03-04T08:25:36.914Z,15.00
2019-03-04T08:28:05.951Z,15.00
2019-03-04T08:30:32.602Z,15.10
2019-03-04T08:32:58.958Z,15.00
2019-03-04T08:35:25.727Z,15.00
2019-03-04T08:37:52.770Z,14.90
2019-03-04T08:40:19.086Z,14.80
2019-03-04T08:42:45.677Z,14.80
2019-03-04T08:45:15.288Z,14.80
2019-03-04T08:47:41.868Z,14.80
2019-03-04T08:50:14.263Z,14.90
2019-03-04T08:52:40.678Z,15.10
2019-03-04T08:55:10.597Z,15.10
2019-03-04T08:57:37.126Z,15.00
2019-03-04T09:00:11.421Z,15.10
2019-03-04T09:02:38.068Z,15.20
2019-03-04T09:05:08.191Z,15.30
2019-03-04T09:07:34.491Z,15.30
2019-03-04T09:10:02.204Z,15.30
2019-03-04T09:12:29.820Z,15.50
2019-03-04T09:14:56.420Z,15.60
2019-03-04T09:17:23.010Z,15.50
2019-03-04T09:19:50.338Z,15.70
2019-03-04T09:22:16.642Z,15.70
2019-03-04T09:24:43.016Z,15.70
2019-03-04T09:27:09.601Z,15.70
2019-03-04T09:29:36.012Z,15.90
2019-03-04T09:32:02.606Z,16.10
2019-03-04T09:34:29.194Z,16.40
2019-03-04T09:36:55.730Z,16.30
2019-03-04T09:39:22.075Z,16.40
2019-03-04T09:41:52.613Z,16.60
2019-03-04T09:44:19.346Z,16.50
2019-03-04T09:46:45.920Z,16.20
2019-03-04T09:49:12.220Z,16.20
2019-03-04T09:51:38.784Z,16.10
2019-03-04T09:54:05.115Z,15.90
2019-03-04T09:56:31.775Z,15.80
2019-03-04T09:58:58.369Z,15.70
2019-03-04T10:01:30.673Z,15.70
2019-03-04T10:04:39.968Z,15.70
2019-03-04T10:07:23.719Z,15.90
2019-03-04T10:10:23.543Z,16.10
2019-03-04T10:13:19.322Z,16.40
2019-03-04T10:16:00.860Z,16.50
2019-03-04T10:18:54.007Z,16.60
2019-03-04T10:21:33.274Z,16.70
2019-03-04T10:24:19.746Z,16.80
2019-03-04T10:27:29.574Z,16.80
2019-03-04T10:30:13.738Z,16.80
2019-03-04T10:32:51.156Z,16.60
2019-03-04T10:35:32.355Z,16.40
2019-03-04T10:38:10.346Z,16.30
2019-03-04T10:41:03.304Z,16.30
2019-03-04T10:43:58.327Z,16.30
2019-03-04T10:46:52.362Z,16.20
2019-03-04T10:49:18.669Z,16.20
2019-03-04T10:51:45.042Z,16.30
2019-03-04T10:54:11.699Z,16.20
2019-03-04T10:56:40.601Z,16.20
2019-03-04T10:59:06.266Z,16.20
2019-03-04T11:01:32.600Z,16.30
2019-03-04T11:03:59.044Z,16.60
2019-03-04T11:06:25.408Z,16.60
2019-03-04T11:08:52.012Z,16.70
2019-03-04T11:11:18.836Z,16.60
2019-03-04T11:13:45.150Z,16.50
2019-03-04T11:16:11.516Z,16.30
2019-03-04T11:18:38.860Z,16.40
2019-03-04T11:21:05.482Z,16.40
2019-03-04T11:23:31.799Z,16.40
2019-03-04T11:25:58.161Z,16.40
2019-03-04T11:28:24.702Z,16.40
2019-03-04T11:30:51.295Z,16.30
2019-03-04T11:33:17.613Z,16.40
2019-03-04T11:35:44.286Z,16.80
2019-03-04T11:38:52.076Z,16.70
2019-03-04T11:41:21.761Z,17.70
2019-03-04T11:43:48.352Z,18.00
2019-03-04T11:46:16.633Z,18.30
2019-03-04T11:48:43.005Z,19.20
2019-03-04T11:51:09.327Z,18.40
2019-03-04T11:53:36.650Z,18.30
2019-03-04T11:56:03.599Z,18.30
2019-03-04T11:58:30.344Z,18.60
2019-03-04T12:00:59.297Z,17.90
2019-03-04T12:03:25.820Z,18.00
2019-03-04T12:05:52.584Z,17.90
2019-03-04T12:08:19.317Z,17.60
2019-03-04T12:10:45.873Z,18.40
2019-03-04T12:13:12.463Z,18.80
2019-03-04T12:15:39.054Z,18.60
2019-03-04T12:18:05.541Z,17.10
2019-03-04T12:20:32.271Z,16.80
2019-03-04T12:22:58.549Z,17.50
2019-03-04T12:25:25.002Z,18.00
2019-03-04T12:27:51.384Z,19.30
2019-03-04T12:30:23.610Z,19.20
2019-03-04T12:32:51.145Z,19.80
2019-03-04T12:35:17.781Z,19.60
2019-03-04T12:37:46.770Z,18.40
2019-03-04T12:40:22.226Z,18.00
2019-03-04T12:42:48.527Z,16.80
2019-03-04T12:45:22.958Z,16.30
2019-03-04T12:47:50.167Z,16.40
2019-03-04T12:50:33.434Z,16.80
2019-03-04T12:53:00.439Z,16.70
2019-03-04T12:55:27.219Z,15.70
2019-03-04T12:57:53.644Z,15.70
2019-03-04T13:00:28.795Z,15.70
2019-03-04T13:02:57.962Z,15.80
2019-03-04T13:05:23.796Z,16.10
2019-03-04T13:07:50.554Z,16.70
2019-03-04T13:10:17.756Z,16.20
2019-03-04T13:12:44.681Z,16.50
2019-03-04T13:15:34.328Z,16.20
2019-03-04T13:18:01.283Z,16.00
2019-03-04T13:20:29.371Z,15.60
2019-03-04T13:22:57.711Z,15.50
2019-03-04T13:25:24.327Z,15.40
2019-03-04T13:27:50.653Z,15.20
2019-03-04T13:30:37.783Z,15.20
2019-03-04T13:33:04.299Z,15.10
2019-03-04T13:35:40.919Z,15.00
2019-03-04T13:38:07.633Z,15.00
2019-03-04T13:40:35.325Z,15.10
2019-03-04T13:43:01.847Z,14.90
2019-03-04T13:45:28.538Z,14.70
2019-03-04T13:47:55.397Z,14.30
2019-03-04T13:50:29.170Z,14.20
2019-03-04T13:52:56.222Z,13.90
2019-03-04T13:55:22.550Z,13.70
2019-03-04T13:57:48.887Z,13.60
2019-03-04T14:00:18.734Z,13.60
2019-03-04T14:02:45.531Z,13.60
2019-03-04T14:05:15.472Z,13.70
2019-03-04T14:07:41.785Z,13.80
2019-03-04T14:10:12.245Z,13.70
2019-03-04T14:12:39.021Z,13.70
2019-03-04T14:15:10.863Z,13.70
2019-03-04T14:17:37.196Z,13.60
2019-03-04T14:20:09.043Z,13.60
2019-03-04T14:22:40.362Z,13.30
2019-03-04T14:25:13.730Z,13.40
2019-03-04T14:27:40.376Z,13.50
2019-03-04T14:30:20.448Z,13.50
2019-03-04T14:32:47.103Z,13.60
2019-03-04T14:35:13.821Z,13.40
2019-03-04T14:37:41.329Z,13.50
2019-03-04T14:40:16.170Z,13.60
2019-03-04T14:42:42.958Z,13.50
2019-03-04T14:45:19.956Z,13.50
2019-03-04T14:47:47.033Z,13.50
2019-03-04T14:50:19.883Z,13.60
2019-03-04T14:52:46.320Z,13.60
2019-03-04T14:55:34.417Z,13.60
2019-03-04T14:58:02.037Z,13.60
2019-03-04T15:00:41.371Z,13.60
2019-03-04T15:03:07.782Z,13.70
2019-03-04T15:05:34.861Z,13.60
2019-03-04T15:08:01.293Z,13.60
2019-03-04T15:10:27.749Z,13.60
2019-03-04T15:12:54.460Z,13.60
2019-03-04T15:15:23.193Z,13.50
2019-03-04T15:17:49.849Z,13.50
2019-03-04T15:20:23.888Z,13.50
2019-03-04T15:22:50.481Z,13.40
2019-03-04T15:25:35.069Z,13.40
2019-03-04T15:28:21.642Z,13.40
2019-03-04T15:30:54.127Z,13.40
2019-03-04T15:33:20.818Z,13.30
2019-03-04T15:35:47.476Z,13.30
2019-03-04T15:38:14.097Z,13.20
2019-03-04T15:40:40.499Z,13.20
2019-03-04T15:43:06.835Z,13.10
2019-03-04T15:45:33.701Z,13.10
2019-03-04T15:48:00.482Z,13.10
2019-03-04T15:50:27.149Z,13.00
2019-03-04T15:52:53.720Z,13.00
2019-03-04T15:55:21.300Z,12.90
2019-03-04T15:57:50.249Z,12.90
2019-03-04T16:00:16.595Z,12.90
2019-03-04T16:02:43.231Z,12.90
2019-03-04T16:05:11.944Z,13.00
2019-03-04T16:07:38.592Z,12.90
2019-03-04T16:10:15.410Z,13.00
2019-03-04T16:12:41.970Z,12.90
2019-03-04T16:15:12.701Z,12.80
2019-03-04T16:17:39.104Z,12.80
2019-03-04T16:20:16.003Z,12.70
2019-03-04T16:22:40.776Z,12.70
2019-03-04T16:25:09.615Z,12.60
2019-03-04T16:27:36.195Z,12.60
2019-03-04T16:30:20.769Z,12.60
2019-03-04T16:32:47.072Z,12.50
2019-03-04T16:35:13.529Z,12.50
2019-03-04T16:37:40.314Z,12.50
2019-03-04T16:40:15.952Z,12.50
2019-03-04T16:42:42.558Z,12.50
2019-03-04T16:45:13.994Z,12.50
2019-03-04T16:47:40.365Z,12.50
2019-03-04T16:50:11.027Z,12.50
2019-03-04T16:52:37.607Z,12.50
2019-03-04T16:55:08.303Z,12.50
2019-03-04T16:57:34.898Z,10.90
2019-03-04T17:00:02.607Z,9.50
2019-03-04T17:02:31.420Z,9.30
2019-03-04T17:04:57.859Z,9.20
2019-03-04T17:07:24.310Z,9.20
2019-03-04T17:09:50.966Z,9.30
2019-03-04T17:12:17.284Z,9.40
2019-03-04T17:14:43.847Z,9.40
2019-03-04T17:17:11.140Z,9.50
2019-03-04T17:19:37.484Z,9.50
2019-03-04T17:22:04.084Z,9.50
2019-03-04T17:24:31.523Z,9.60
2019-03-04T17:26:57.853Z,9.70
2019-03-04T17:29:24.507Z,9.70
2019-03-04T17:31:50.840Z,9.80
2019-03-04T17:34:17.295Z,9.90
2019-03-04T17:36:44.074Z,9.80
2019-03-04T17:39:10.451Z,9.80
2019-03-04T17:41:40.758Z,9.80
2019-03-04T17:44:07.456Z,9.90
2019-03-04T17:46:34.109Z,9.90
2019-03-04T17:49:00.813Z,9.90
2019-03-04T17:51:27.381Z,9.90
2019-03-04T17:53:54.007Z,9.90
2019-03-04T17:56:20.323Z,9.80
2019-03-04T17:58:46.804Z,9.80
2019-03-04T18:01:13.107Z,9.80
2019-03-04T18:03:39.548Z,9.90
2019-03-04T18:06:06.228Z,9.90
2019-03-04T18:08:32.862Z,10.00
2019-03-04T18:10:59.426Z,10.00
2019-03-04T18:13:26.785Z,10.10
2019-03-04T18:15:53.389Z,10.10
2019-03-04T18:18:19.764Z,8.60
2019-03-04T18:20:46.084Z,6.40
2019-03-04T18:23:13.855Z,5.90
2019-03-04T18:25:51.480Z,5.70
2019-03-04T18:28:41.698Z,5.70
2019-03-04T18:31:36.005Z,5.70
2019-03-04T18:34:16.810Z,5.60
2019-03-04T18:37:16.870Z,5.50
2019-03-04T18:39:51.711Z,5.40
2019-03-04T18:42:29.816Z,5.30
2019-03-04T18:45:33.852Z,5.30
2019-03-04T18:48:14.859Z,5.40
2019-03-04T18:50:41.635Z,5.40
2019-03-04T18:53:08.119Z,5.40
2019-03-04T18:55:34.436Z,5.50
2019-03-04T18:58:01.180Z,5.60
2019-03-04T19:00:27.759Z,5.70
2019-03-04T19:02:55.406Z,5.80
2019-03-04T19:05:22.590Z,5.90
2019-03-04T19:07:49.552Z,6.00
2019-03-04T19:10:16.109Z,6.00
2019-03-04T19:12:43.011Z,6.10
2019-03-04T19:15:10.260Z,6.10
2019-03-04T19:17:37.218Z,6.10
2019-03-04T19:20:09.559Z,6.10
2019-03-04T19:22:37.836Z,6.20
2019-03-04T19:25:06.184Z,6.20
2019-03-04T19:27:32.889Z,6.10
2019-03-04T19:29:59.558Z,6.10
2019-03-04T19:32:26.060Z,6.10
2019-03-04T19:34:52.777Z,6.00
2019-03-04T19:37:19.121Z,6.00
2019-03-04T19:39:45.665Z,6.00
2019-03-04T19:42:12.430Z,6.00
2019-03-04T19:44:38.859Z,6.00
2019-03-04T19:47:05.203Z,6.00
2019-03-04T19:49:31.774Z,6.00
2019-03-04T19:51:58.269Z,6.00
2019-03-04T19:54:24.968Z,6.00
2019-03-04T19:56:51.376Z,6.00
2019-03-04T19:59:18.115Z,5.90
2019-03-04T20:01:44.774Z,5.90
2019-03-04T20:04:11.527Z,5.90
2019-03-04T20:06:38.236Z,5.90
2019-03-04T20:09:06.012Z,5.90
2019-03-04T20:11:34.265Z,5.90
2019-03-04T20:14:00.894Z,6.00
2019-03-04T20:16:27.284Z,6.00
2019-03-04T20:18:53.654Z,6.00
2019-03-04T20:21:20.240Z,6.00
2019-03-04T20:23:47.002Z,6.00
2019-03-04T20:26:13.457Z,6.00
2019-03-04T20:28:40.155Z,6.00
2019-03-04T20:31:07.794Z,6.00
2019-03-04T20:33:34.128Z,6.00
2019-03-04T20:36:01.850Z,6.00
2019-03-04T20:38:36.935Z,6.00
2019-03-04T20:41:03.595Z,6.00
2019-03-04T20:43:30.191Z,6.00
2019-03-04T20:45:56.689Z,6.00
2019-03-04T20:48:23.165Z,6.00
2019-03-04T20:50:49.495Z,6.00
2019-03-04T20:53:16.627Z,6.00
2019-03-04T20:55:42.947Z,6.00
2019-03-04T20:58:09.360Z,6.00
2019-03-04T21:00:37.018Z,6.10
2019-03-04T21:03:05.683Z,6.00
2019-03-04T21:05:32.806Z,6.00
2019-03-04T21:07:59.651Z,6.00
2019-03-04T21:10:26.444Z,6.00
2019-03-04T21:12:54.988Z,6.00
2019-03-04T21:15:21.826Z,6.00
2019-03-04T21:17:48.552Z,6.00
2019-03-04T21:20:16.489Z,5.90
2019-03-04T21:22:43.050Z,5.90
2019-03-04T21:25:55.548Z,5.90
2019-03-04T21:28:49.148Z,5.80
2019-03-04T21:31:30.604Z,5.90
2019-03-04T21:34:08.267Z,5.90
2019-03-04T21:37:06.633Z,5.90
2019-03-04T21:39:48.217Z,5.80
2019-03-04T21:42:32.362Z,5.80
2019-03-04T21:45:16.440Z,5.80
2019-03-04T21:47:54.573Z,5.80
2019-03-04T21:51:04.398Z,5.80
2019-03-04T21:53:46.147Z,5.80
2019-03-04T21:56:42.474Z,5.80
2019-03-04T21:59:09.030Z,5.80
2019-03-04T22:01:41.305Z,5.80
2019-03-04T22:04:08.330Z,5.80
2019-03-04T22:06:35.362Z,5.80
2019-03-04T22:09:04.132Z,5.80
2019-03-04T22:11:32.380Z,5.80
2019-03-04T22:13:59.128Z,5.80
2019-03-04T22:16:25.557Z,5.80
2019-03-04T22:18:52.172Z,5.80
2019-03-04T22:21:18.599Z,5.80
2019-03-04T22:23:45.330Z,5.80
2019-03-04T22:26:11.665Z,5.80
2019-03-04T22:28:37.995Z,5.80
2019-03-04T22:31:04.446Z,5.80
2019-03-04T22:33:30.870Z,5.80
2019-03-04T22:35:57.234Z,5.80
2019-03-04T22:38:23.728Z,5.80
2019-03-04T22:40:51.457Z,5.80
2019-03-04T22:43:17.863Z,5.80
2019-03-04T22:45:44.988Z,5.80
2019-03-04T22:48:11.297Z,5.80
2019-03-04T22:50:38.642Z,5.80
2019-03-04T22:53:05.027Z,5.90
2019-03-04T22:55:37.966Z,5.80
2019-03-04T22:58:05.643Z,5.90
2019-03-04T23:00:46.823Z,5.90
2019-03-04T23:03:15.030Z,5.90
2019-03-04T23:06:00.213Z,5.90
2019-03-04T23:08:26.549Z,5.90
2019-03-04T23:10:53.173Z,5.90
2019-03-04T23:13:45.260Z,5.90
2019-03-04T23:16:19.318Z,5.90
2019-03-04T23:18:45.945Z,5.90
2019-03-04T23:21:12.329Z,5.90
2019-03-04T23:23:39.073Z,5.80
2019-03-04T23:26:06.671Z,5.90
2019-03-04T23:28:33.193Z,5.90
2019-03-04T23:31:00.086Z,5.90
2019-03-04T23:33:26.501Z,5.90
2019-03-04T23:35:53.128Z,5.90
2019-03-04T23:38:19.414Z,5.90
2019-03-04T23:40:45.790Z,5.90
2019-03-04T23:43:12.131Z,5.90
2019-03-04T23:45:38.467Z,5.80
2019-03-04T23:48:04.773Z,5.80
2019-03-04T23:50:31.096Z,5.80
2019-03-04T23:52:57.699Z,5.90
2019-03-04T23:55:24.014Z,5.90
2019-03-04T23:57:50.357Z,5.90
